AirNav   Everest Fuels
 
 1409 users online  

58NE Nebraska Methodist Hospital Heliport
Omaha, Nebraska, USA

GOING TO OMAHA?


FAA INFORMATION EFFECTIVE 05 DECEMBER 2019

Location

FAA Identifier: 58NE
Lat/Long: 41-15-32.9950N 096-02-27.0620W
41-15.549917N 096-02.451033W
41.2591653,-96.0408506
(estimated)
Elevation: 1110 ft. / 338 m (estimated)
Variation: 06E (1985)
Time zone: UTC -6 (UTC -5 during Daylight Saving Time)
Zip code: 68114

Heliport Operations

Heliport use: Private use, MEDICAL.
Activation date: 06/1983
Control tower: no
ARTCC: MINNEAPOLIS CENTER
FSS: COLUMBUS FLIGHT SERVICE STATION
Attendance: CONTINUOUS
Wind indicator: lighted
Segmented circle: no

Heliport Communications

WX AWOS-3 at MLE (5 nm SW): 118.25 (402-895-6778)
WX ASOS at OMA (7 nm E): PHONE 402-271-7515
WX AWOS-3 at BTA (10 nm N): 120.225 (402-426-0448)
WX AWOS-3 at CBF (13 nm E): 126.575 (712-323-1542)
WX AWOS-3 at PMV (19 nm S): 118.975 (402-298-7524)

Nearby radio navigation aids

VOR radial/distance  VOR name  Freq  Var
OVRr284/14.8OMAHA VORTAC116.3008E
SCBr122/33.6SCRIBNER VOR/DME111.0006E
LNKr049/37.6LINCOLN VORTAC116.1009E

 
NDB name  Hdg/Dist  Freq  Var  ID
PLATTSMOUTH338/19.832905EPMV .--. -- ...-
WAHOO081/25.240006EAHQ .- .... --.-

Heliport Services

Runway Information

Helipad H1

Dimensions: 75 x 75 ft. / 23 x 23 m
Surface: concrete
Latitude: 41-15.549917N
Longitude: 096-02.451033W
Elevation: 1110.0 ft.
Traffic pattern: leftleft

Heliport Ownership and Management from official FAA records

Ownership: Privately-owned
Owner: NEBRASKA METHODIST HOSPITAL
8303 DODGE ST
OMAHA, NE 68114
Phone 402-390-4446
Manager: MATT SHAW, DIRECTOR
8303 DODGE ST
OMAHA, NE 68114
Phone (402) 354-4057
ADDITIONAL CONTACT: ANDY WHITEING 402-354-7943 ANDY.WHITEING@NMHS.ORG

Additional Remarks

FOR CD CTC OMAHA APCH AT 402-682-4395.

Instrument Procedures

There are no published instrument procedures at 58NE.

Some nearby airports with instrument procedures:

KMLE - Millard Airport (5 nm SW)
KOMA - Eppley Airfield (7 nm E)
KBTA - Blair Municipal Airport (10 nm N)
KOFF - Offutt Air Force Base (10 nm SE)
KCBF - Council Bluffs Municipal Airport (13 nm E)
KPMV - Plattsmouth Municipal Airport (19 nm S)
 
Loc | Ops | Rwys | IFR | FBO | Links
Com | Nav | Svcs | Stats | Notes

Silverhawk Aviation, Inc.
AirBoss

 
Area around 58NE (Nebraska Methodist Hospital Heliport)
 
Road maps at: MapQuest Bing Google
 
Aerial photo
No photo
 
Sectional chart

 
Airport distance calculator
Flying to Nebraska Methodist Hospital Heliport? Find the distance to fly.

From to 58NE

Sunrise and sunset
Times for 05-Dec-2019
 Local
(UTC-6)
 Zulu
(UTC)
Morning civil twilight07:0513:05
Sunrise07:3513:35
Sunset16:5422:54
Evening civil twilight17:2523:25

Current date and time
Zulu (UTC)  05-Dec-2019 17:54:34
Local (UTC-6)  05-Dec-2019 11:54:34
 
METAR
KMLE 
5nm SW 
051735Z AUTO 00000KT 10SM CLR 10/02 A2990 RMK AO2 T01040020
KOMA 
7nm NE 
051652Z 16005KT 10SM SCT200 06/01 A2991 RMK AO2 SLP135 T00610011
KBTA 
10nm N 
051735Z AUTO 20005KT 10SM CLR 09/03 A2988 RMK AO2 T00910029
KOFF 
10nm SE 
051656Z 13003KT 10SM CLR 07/01 A2992 RMK AO2A SLP141 RVRNO $
KCBF 
12nm E 
051735Z AUTO 21005KT 10SM CLR 08/02 A2987 RMK AO2
KPMV 
19nm S 
051735Z AUTO 21004KT 10SM CLR 11/03 A2990 RMK AO2 T01090025
TAF
KOMA 
7nm NE 
051120Z 0512/0612 17005KT P6SM FEW250 FM052100 31007KT P6SM BKN250 FM060100 36011KT P6SM BKN180 FM060300 35013G22KT P6SM BKN020 FM060600 35014KT P6SM OVC015
KOFF 
10nm SE 
051000Z 0510/0616 VRB02KT 9999 SKC QNH2988INS BECMG 0520/0521 33009KT 9999 BKN200 QNH2985INS BECMG 0603/0604 34015G25KT 9999 BKN020 QNH3009INS BECMG 0612/0613 36015KT 9999 BKN020 QNH3030INS TX11/0521Z TNM02/0610Z
NOTAMs
Click for the latest NOTAMs
NOTAMs are issued by the DoD/FAA and will open in a separate window not controlled by AirNav.

 

 
 

Would you like to see your business listed on this page?

 If your business provides an interesting product or service to pilots, flight crews, aircraft, or users of the Nebraska Methodist Hospital Heliport, you should consider listing it here.  To start the listing process, click on the button below
 
Add a business
 

Other Pages about Nebraska Methodist Hospital Heliport

Update a link
 
Copyright © AirNav, LLC. All rights reserved. Privacy Policy  Contact